Time;durP1;ratioP1;P1;durP2;ratioP2;P2;SDS_P1;SDS_P2;PMS_P1;PMS_P2;Temp;Humidity;BMP_temperature;BMP_pressure;BME280_temperature;BME280_humidity;BME280_pressure;Samples;Min_cycle;Max_cycle;Signal;HPM_P1;HPM_P2
2022/05/10 00:03:06;;;;;;;5.72;3.42;;;;;;;12.33;74.58;101284.03;6244714;23;20026;-74
2022/05/10 00:06:10;;;;;;;6.50;3.25;;;;;;;12.27;74.89;101273.84;6244305;23;20027;-73
2022/05/10 00:09:20;;;;;;;4.95;3.13;;;;;;;12.25;74.94;101281.78;6244697;23;20092;-74
2022/05/10 00:12:23;;;;;;;5.72;3.20;;;;;;;12.22;74.93;101278.44;6244435;23;20399;-74
2022/05/10 00:15:27;;;;;;;5.40;3.28;;;;;;;12.16;74.70;101270.88;6244571;22;20088;-73
2022/05/10 00:18:31;;;;;;;4.72;3.40;;;;;;;12.18;75.04;101269.88;6244644;23;20023;-74
2022/05/10 00:21:34;;;;;;;4.88;3.45;;;;;;;12.26;74.67;101272.16;6244622;23;20054;-73
2022/05/10 00:24:38;;;;;;;;;;;;;;;12.19;74.92;101268.97;6245214;23;20026;-74
2022/05/10 00:27:42;;;;;;;5.45;3.38;;;;;;;12.12;74.75;101270.16;6225477;23;20354;-74
2022/05/10 00:30:46;;;;;;;4.93;3.97;;;;;;;12.08;74.71;101268.59;6244458;23;20082;-74
2022/05/10 00:33:50;;;;;;;6.82;3.47;;;;;;;12.11;75.03;101268.47;6244357;23;20030;-73
2022/05/10 00:36:54;;;;;;;5.10;3.47;;;;;;;12.14;74.65;101268.31;6226094;23;20078;-73
2022/05/10 00:40:00;;;;;;;6.90;3.67;;;;;;;11.99;74.68;101266.41;6244475;23;20081;-73
2022/05/10 00:43:30;;;;;;;7.47;3.88;;;;;;;11.90;75.04;101258.97;6246496;23;20073;-73
2022/05/10 00:46:55;;;;;;;10.52;3.78;;;;;;;11.83;75.48;101264.47;6246313;23;20146;-73
2022/05/10 00:50:25;;;;;;;6.18;3.58;;;;;;;11.81;75.19;101255.00;6246159;23;20085;-73
2022/05/10 00:53:41;;;;;;;5.90;3.20;;;;;;;11.73;75.40;101259.72;6246222;23;20066;-73
2022/05/10 00:57:03;;;;;;;8.68;3.92;;;;;;;11.73;75.25;101246.63;6245975;23;20116;-73
2022/05/10 01:00:07;;;;;;;4.30;3.05;;;;;;;11.76;75.62;101249.09;6246462;23;20038;-74
2022/05/10 01:03:29;;;;;;;10.30;4.13;;;;;;;11.78;75.49;101249.88;6246092;23;20461;-73
2022/05/10 01:06:44;;;;;;;4.97;3.67;;;;;;;11.65;75.48;101244.34;6246214;23;20399;-73
2022/05/10 01:10:01;;;;;;;6.50;3.40;;;;;;;11.66;75.55;101243.44;6245909;23;20394;-73
2022/05/10 01:13:29;;;;;;;8.63;3.53;;;;;;;11.53;75.68;101244.91;6246025;23;20057;-73
2022/05/10 01:16:33;;;;;;;4.75;3.70;;;;;;;11.47;75.83;101239.94;6246059;23;20059;-73
2022/05/10 01:19:41;;;;;;;7.53;3.45;;;;;;;11.44;76.24;101232.22;6245878;23;20023;-73
2022/05/10 01:23:07;;;;;;;6.25;3.58;;;;;;;11.50;75.88;101224.09;6245997;23;20116;-73
2022/05/10 01:26:24;;;;;;;6.45;3.60;;;;;;;11.52;76.05;101227.47;6245826;23;20474;-73
2022/05/10 01:29:39;;;;;;;7.45;3.63;;;;;;;11.51;75.43;101228.41;6185405;23;20028;-74
2022/05/10 01:36:18;;;;;;;6.53;3.78;;;;;;;11.36;76.01;101220.31;6185531;23;20459;-73
2022/05/10 01:39:37;;;;;;;6.22;3.50;;;;;;;11.24;76.18;101220.84;6185121;23;20402;-73
2022/05/10 01:42:47;;;;;;;10.68;4.05;;;;;;;11.24;76.01;101217.41;6185370;23;20100;-74
2022/05/10 01:46:07;;;;;;;7.30;4.05;;;;;;;11.19;76.43;101212.34;6185375;23;20099;-73
2022/05/10 01:49:24;;;;;;;5.30;3.38;;;;;;;11.25;76.53;101214.69;6185148;23;20462;-73
2022/05/10 01:52:36;;;;;;;6.78;3.45;;;;;;;11.34;75.99;101211.66;6201423;23;20079;-73
2022/05/10 01:55:43;;;;;;;6.75;3.60;;;;;;;11.40;75.91;101211.41;6185104;23;20075;-73
2022/05/10 01:58:48;;;;;;;7.55;4.40;;;;;;;11.27;75.85;101220.72;6185192;23;20028;-73
2022/05/10 02:01:55;;;;;;;6.25;3.72;;;;;;;11.26;76.08;101212.91;6185140;23;20024;-73
2022/05/10 02:05:04;;;;;;;6.85;3.95;;;;;;;11.15;76.07;101209.00;6184749;23;20047;-73
2022/05/10 02:08:16;;;;;;;5.75;4.28;;;;;;;11.16;76.10;101215.94;6185097;23;20103;-73
2022/05/10 02:11:20;;;;;;;6.97;3.88;;;;;;;11.12;76.38;101219.63;6185079;23;20352;-73
2022/05/10 02:14:34;;;;;;;5.75;3.53;;;;;;;10.99;76.69;101217.59;6185061;23;20107;-73
2022/05/10 02:18:05;;;;;;;9.95;5.35;;;;;;;10.87;76.53;101214.56;6185033;23;20059;-73
2022/05/10 02:21:18;;;;;;;5.05;3.70;;;;;;;10.90;76.47;101219.69;6184940;23;20348;-73
2022/05/10 02:24:43;;;;;;;15.85;4.32;;;;;;;10.88;76.83;101215.44;6184912;23;20087;-74
2022/05/10 02:27:52;;;;;;;5.60;3.97;;;;;;;10.91;76.74;101216.19;6222679;23;20023;-73
2022/05/10 02:31:00;;;;;;;6.18;3.70;;;;;;;10.91;76.19;101216.19;6244877;23;20026;-73
2022/05/10 02:34:04;;;;;;;8.15;3.63;;;;;;;10.80;76.42;101217.53;6245206;23;20046;-73
2022/05/10 02:37:07;;;;;;;8.18;3.58;;;;;;;10.84;76.58;101219.94;6244969;23;20082;-73
2022/05/10 02:40:11;;;;;;;6.07;3.55;;;;;;;10.93;76.44;101211.72;6245130;23;20070;-73
2022/05/10 02:43:20;;;;;;;6.35;3.75;;;;;;;10.92;76.13;101207.41;6245204;23;20081;-73
2022/05/10 02:46:24;;;;;;;5.63;4.03;;;;;;;10.92;76.33;101211.78;6245085;23;20026;-73
2022/05/10 02:49:28;;;;;;;8.52;4.22;;;;;;;10.83;76.71;101202.56;6245057;23;20023;-73
2022/05/10 02:52:31;;;;;;;4.68;3.85;;;;;;;10.77;76.91;101197.56;6226298;23;20361;-73
2022/05/10 02:55:57;;;;;;;7.55;4.18;;;;;;;10.78;76.54;101198.44;6245356;23;20027;-74
2022/05/10 02:59:07;;;;;;;6.57;3.80;;;;;;;10.64;77.09;101197.25;6244736;23;20446;-73
2022/05/10 03:02:32;;;;;;;11.82;4.00;;;;;;;10.60;77.25;101202.69;6244962;23;20093;-73
2022/05/10 03:05:36;;;;;;;4.93;3.65;;;;;;;10.63;77.06;101205.16;6244705;23;20027;-73
2022/05/10 03:08:39;;;;;;;8.18;4.38;;;;;;;10.65;76.89;101195.47;6244711;23;20351;-73
2022/05/10 03:11:44;;;;;;;5.78;3.83;;;;;;;10.64;76.89;101197.25;6244882;23;20084;-74
2022/05/10 03:14:47;;;;;;;7.25;4.15;;;;;;;10.58;76.82;101201.88;6226453;23;20466;-73
2022/05/10 03:17:51;;;;;;;8.55;4.10;;;;;;;10.54;77.02;101195.09;6244918;23;20019;-73
2022/05/10 03:20:54;;;;;;;5.63;4.00;;;;;;;10.60;76.71;101192.22;6244169;23;20027;-73
2022/05/10 03:23:58;;;;;;;5.40;3.60;;;;;;;10.54;77.02;101195.09;6243879;23;20022;-73
2022/05/10 03:27:05;;;;;;;5.30;3.50;;;;;;;10.60;77.13;101197.44;6244494;23;20030;-73
2022/05/10 03:30:09;;;;;;;16.48;4.32;;;;;;;10.64;76.79;101192.00;6244763;23;20466;-73
2022/05/10 03:33:13;;;;;;;7.30;4.18;;;;;;;10.64;76.28;101193.78;6245049;23;20089;-73
2022/05/10 03:36:16;;;;;;;4.97;4.10;;;;;;;10.62;77.03;101187.75;6244460;23;20565;-73
2022/05/10 03:39:20;;;;;;;4.00;3.60;;;;;;;10.56;77.10;101188.00;6244349;23;20365;-73
2022/05/10 03:42:25;;;;;;;6.95;4.10;;;;;;;10.60;76.95;101192.22;6245072;23;20066;-73
2022/05/10 03:45:35;;;;;;;6.03;4.13;;;;;;;10.57;77.30;101189.72;6241323;23;20023;-73
2022/05/10 03:48:43;;;;;;;4.65;3.50;;;;;;;10.51;77.36;101192.59;6238642;23;20023;-73
2022/05/10 03:51:47;;;;;;;4.38;3.33;;;;;;;10.39;77.56;101192.16;6239638;23;20478;-74
2022/05/10 03:54:51;;;;;;;4.28;3.88;;;;;;;10.36;77.74;101181.84;6239865;23;20027;-73
2022/05/10 03:58:02;;;;;;;5.38;3.95;;;;;;;10.38;77.46;101185.25;6241247;23;20047;-73
2022/05/10 04:01:09;;;;;;;5.78;4.18;;;;;;;10.36;77.83;101187.06;6220690;23;20032;-73
2022/05/10 04:04:14;;;;;;;5.00;3.60;;;;;;;10.53;77.16;101188.13;6238254;23;20158;-73
2022/05/10 04:07:18;;;;;;;6.53;4.28;;;;;;;10.41;77.80;101185.13;6239215;23;20023;-73
2022/05/10 04:10:25;;;;;;;5.90;4.00;;;;;;;10.41;77.63;101185.13;6240252;23;20383;-73
2022/05/10 04:13:29;;;;;;;6.22;3.78;;;;;;;10.44;77.54;101194.63;6240100;22;20109;-73
2022/05/10 04:16:33;;;;;;;5.13;3.60;;;;;;;10.38;77.61;101189.63;6237814;23;20038;-73
2022/05/10 04:19:36;;;;;;;5.18;3.85;;;;;;;10.49;77.15;101184.81;6241132;23;20026;-73
2022/05/10 04:22:40;;;;;;;6.10;3.72;;;;;;;10.52;77.22;101189.06;6221872;23;20101;-73
2022/05/10 04:25:44;;;;;;;7.07;3.63;;;;;;;10.47;77.39;101190.09;6240416;23;20027;-73
2022/05/10 04:28:47;;;;;;;9.52;3.58;;;;;;;10.52;77.06;101191.69;6222134;23;20362;-73
2022/05/10 04:31:51;;;;;;;;;;;;;;;10.69;76.85;101186.59;6240562;23;20099;-73
2022/05/10 04:34:54;;;;;;;5.78;3.50;;;;;;;10.63;77.01;101195.56;6240719;23;19969;-73
2022/05/10 04:38:08;;;;;;;5.70;4.28;;;;;;;10.67;76.89;101185.81;6241626;23;20344;-73
2022/05/10 04:41:27;;;;;;;7.07;3.88;;;;;;;10.67;77.14;101193.66;6240900;23;20023;-73
2022/05/10 04:44:30;;;;;;;8.40;4.53;;;;;;;10.51;77.72;101188.22;6239920;23;20027;-74
2022/05/10 04:47:34;;;;;;;5.45;4.28;;;;;;;10.53;77.88;101194.25;6240387;23;20107;-74
2022/05/10 04:50:37;;;;;;;4.25;3.83;;;;;;;10.55;78.01;101187.16;6240874;23;20031;-73
2022/05/10 04:53:41;;;;;;;5.13;3.97;;;;;;;10.60;77.97;101195.69;6241070;23;20035;-73
2022/05/10 04:56:45;;;;;;;6.00;3.72;;;;;;;10.69;77.64;101191.84;6241535;23;20104;-73
2022/05/10 04:59:48;;;;;;;;;;;;;;;10.67;78.04;101196.28;6240278;23;20019;-73
2022/05/10 05:02:52;;;;;;;4.65;3.97;;;;;;;10.63;78.29;101194.72;6242148;23;19957;-73
2022/05/10 05:05:55;;;;;;;5.28;4.22;;;;;;;10.67;78.49;101198.88;6244312;23;20390;-73
2022/05/10 05:08:58;;;;;;;;;;;;;;;10.74;78.12;101200.31;6239391;23;20043;-73
2022/05/10 05:12:04;;;;;;;5.50;3.58;;;;;;;10.82;77.85;101198.25;6240803;23;19938;-73
2022/05/10 05:15:11;;;;;;;6.32;4.13;;;;;;;10.84;77.78;101196.41;6241193;22;20023;-73
2022/05/10 05:18:15;;;;;;;6.47;4.13;;;;;;;10.93;77.56;101205.63;6242609;23;20023;-73
2022/05/10 05:21:19;;;;;;;9.30;4.15;;;;;;;11.02;77.53;101201.78;6240495;23;20144;-73
2022/05/10 05:24:23;;;;;;;7.25;4.45;;;;;;;10.97;77.63;101201.94;6239632;23;20023;-73
2022/05/10 05:27:27;;;;;;;4.75;4.25;;;;;;;11.08;77.49;101206.75;6238240;23;20069;-73
2022/05/10 05:30:31;;;;;;;5.30;4.20;;;;;;;11.25;76.86;101204.22;6239841;23;20027;-73
2022/05/10 05:33:35;;;;;;;10.32;5.13;;;;;;;11.31;76.57;101197.88;6239760;23;20070;-73
2022/05/10 05:36:38;;;;;;;;;;;;;;;11.38;76.98;101194.91;6241581;23;20101;-73
2022/05/10 05:39:42;;;;;;;4.82;3.90;;;;;;;11.48;76.07;101194.50;6239284;23;19918;-73
2022/05/10 05:42:47;;;;;;;6.93;4.25;;;;;;;11.47;76.52;101191.03;6239323;23;20086;-73
2022/05/10 05:45:52;;;;;;;7.82;3.88;;;;;;;11.45;77.07;101192.00;6237438;23;20074;-73
2022/05/10 05:49:01;;;;;;;5.25;3.83;;;;;;;11.43;77.39;101196.47;6238867;23;20454;-73
2022/05/10 05:52:05;;;;;;;4.80;3.85;;;;;;;11.40;77.11;101198.31;6239398;23;20081;-73
2022/05/10 05:55:11;;;;;;;4.57;3.75;;;;;;;11.46;77.07;101193.72;6238433;23;20027;-74
2022/05/10 05:58:15;;;;;;;5.90;3.75;;;;;;;11.60;76.88;101196.56;6240114;23;20471;-73
2022/05/10 06:01:18;;;;;;;7.05;3.80;;;;;;;11.59;77.00;101198.31;6239138;23;20098;-73
2022/05/10 06:04:22;;;;;;;6.75;4.35;;;;;;;11.64;77.00;101195.47;6213550;23;20436;-74
2022/05/10 06:07:26;;;;;;;7.90;4.30;;;;;;;11.62;76.85;101186.88;6236934;23;20051;-73
2022/05/10 06:10:30;;;;;;;6.05;3.60;;;;;;;11.75;76.80;101188.00;6238496;23;20023;-73
2022/05/10 06:13:37;;;;;;;7.20;3.85;;;;;;;11.81;76.78;101192.94;6239207;22;20347;-73
2022/05/10 06:16:41;;;;;;;8.27;3.70;;;;;;;11.77;77.59;101188.78;6239087;23;20026;-73
2022/05/10 06:19:46;;;;;;;5.47;3.85;;;;;;;11.86;77.02;101185.72;6240186;23;20379;-73
2022/05/10 06:22:51;;;;;;;6.53;4.03;;;;;;;11.88;76.77;101182.22;6240729;23;20394;-73
2022/05/10 06:25:55;;;;;;;6.78;4.05;;;;;;;12.00;76.59;101182.47;6240634;23;20038;-73
2022/05/10 06:28:58;;;;;;;6.20;4.00;;;;;;;12.05;76.71;101185.72;6239609;23;20182;-73
2022/05/10 06:32:03;;;;;;;6.43;4.03;;;;;;;12.13;77.09;101188.00;6239662;23;20054;-74
2022/05/10 06:35:08;;;;;;;5.90;3.92;;;;;;;12.23;77.11;101178.75;6241249;23;20086;-73
2022/05/10 06:38:19;;;;;;;4.72;4.10;;;;;;;12.31;77.27;101179.19;6239492;23;20183;-73
2022/05/10 06:41:25;;;;;;;5.78;4.45;;;;;;;12.47;77.02;101181.06;6239306;23;20077;-73
2022/05/10 06:44:29;;;;;;;7.22;4.60;;;;;;;12.62;76.88;101169.81;6239252;23;20027;-73
2022/05/10 06:47:35;;;;;;;7.82;3.95;;;;;;;12.74;76.38;101168.34;6239423;23;20031;-73
2022/05/10 06:50:44;;;;;;;8.45;5.00;;;;;;;12.77;76.21;101161.19;6239703;23;20130;-73
2022/05/10 06:53:48;;;;;;;5.35;4.15;;;;;;;12.76;76.10;101159.50;6239519;23;20027;-73
2022/05/10 06:56:51;;;;;;;7.38;5.45;;;;;;;12.93;75.89;101157.75;6239991;23;20031;-73
2022/05/10 06:59:55;;;;;;;5.75;4.55;;;;;;;13.07;75.66;101150.00;6243762;23;20402;-73
2022/05/10 07:02:58;;;;;;;7.57;4.68;;;;;;;13.20;74.63;101155.44;6243791;23;20023;-73
2022/05/10 07:06:05;;;;;;;9.40;4.68;;;;;;;13.26;74.16;101150.75;6244109;22;20023;-73
2022/05/10 07:09:09;;;;;;;9.07;4.90;;;;;;;13.45;74.50;101152.41;6245460;23;20455;-73
2022/05/10 07:12:12;;;;;;;7.47;4.95;;;;;;;13.68;75.08;101145.88;6226928;23;20107;-73
2022/05/10 07:15:16;;;;;;;;;;;;;;;13.84;75.12;101140.63;6245387;23;20069;-73
2022/05/10 07:18:23;;;;;;;8.95;5.80;;;;;;;13.91;74.27;101141.97;6244550;23;20200;-73
2022/05/10 07:21:27;;;;;;;11.00;6.38;;;;;;;13.96;74.00;101134.66;6244867;23;20027;-73
2022/05/10 07:24:30;;;;;;;6.53;4.95;;;;;;;14.02;73.79;101134.31;6244482;23;20062;-73
2022/05/10 07:27:34;;;;;;;7.10;5.45;;;;;;;14.11;73.45;101136.44;6243373;23;20146;-73
2022/05/10 07:30:37;;;;;;;8.77;5.43;;;;;;;14.14;74.29;101131.00;6244407;23;20281;-73
2022/05/10 07:33:41;;;;;;;5.90;4.65;;;;;;;14.25;74.00;101124.25;6244773;23;20379;-73
2022/05/10 07:36:51;;;;;;;11.70;5.38;;;;;;;14.31;74.06;101122.13;6244846;23;20031;-73
2022/05/10 07:39:56;;;;;;;6.45;4.95;;;;;;;14.37;74.68;101119.13;6244808;23;20066;-73
2022/05/10 07:43:00;;;;;;;7.40;4.85;;;;;;;14.39;74.53;101121.69;6244566;23;20347;-73
2022/05/10 07:46:05;;;;;;;6.65;5.00;;;;;;;14.51;74.55;101125.41;6244671;23;20073;-73
2022/05/10 07:49:09;;;;;;;9.75;4.90;;;;;;;14.52;74.17;101117.44;6244215;23;20027;-73
2022/05/10 07:52:14;;;;;;;8.80;4.80;;;;;;;14.64;73.66;101118.47;6246841;23;20026;-73
2022/05/10 07:55:18;;;;;;;9.85;4.95;;;;;;;14.72;73.38;101118.00;6246547;23;20080;-73
2022/05/10 07:58:21;;;;;;;8.75;4.60;;;;;;;14.76;73.79;101111.63;6246531;23;20023;-73
2022/05/10 08:01:26;;;;;;;7.85;5.10;;;;;;;14.90;73.99;101106.38;6247076;23;20023;-73
2022/05/10 08:04:30;;;;;;;11.77;4.50;;;;;;;15.00;73.07;101102.22;6246560;23;20026;-73
2022/05/10 08:07:35;;;;;;;4.95;4.18;;;;;;;15.11;72.87;101102.41;6240962;23;20082;-73
2022/05/10 08:10:43;;;;;;;11.13;4.45;;;;;;;15.31;72.60;101100.31;6241295;23;20027;-73
2022/05/10 08:13:54;;;;;;;8.93;4.65;;;;;;;15.44;71.84;101097.75;6240543;23;20026;-73
2022/05/10 08:16:58;;;;;;;8.95;4.32;;;;;;;15.56;71.69;101094.34;6239437;23;20103;-73
2022/05/10 08:20:03;;;;;;;9.32;3.45;;;;;;;15.70;70.88;101101.41;6241452;23;20023;-73
2022/05/10 08:23:08;;;;;;;6.00;4.20;;;;;;;15.77;70.72;101092.16;6240951;23;20015;-73
2022/05/10 08:26:11;;;;;;;7.82;4.22;;;;;;;15.98;70.32;101084.59;6240102;23;20026;-73
2022/05/10 08:29:15;;;;;;;6.25;4.30;;;;;;;16.06;69.08;101084.13;6239992;23;20098;-73
2022/05/10 08:32:20;;;;;;;5.28;3.83;;;;;;;16.27;69.16;101072.09;6240576;23;20046;-73
2022/05/10 08:35:23;;;;;;;9.80;4.22;;;;;;;16.35;68.39;101067.16;6241792;23;20082;-73
2022/05/10 08:38:30;;;;;;;8.10;3.83;;;;;;;16.59;66.65;101063.78;6223245;23;20513;-73
2022/05/10 08:41:54;;;;;;;6.03;4.40;;;;;;;16.82;68.16;101059.59;6221741;23;20702;-73
2022/05/10 08:45:05;;;;;;;8.57;4.18;;;;;;;16.98;68.26;101065.50;6241158;23;20070;-73
2022/05/10 08:48:09;;;;;;;8.52;3.67;;;;;;;17.02;68.16;101061.69;6241822;23;20101;-73
2022/05/10 08:51:40;;;;;;;4.53;3.60;;;;;;;17.24;67.73;101054.88;6242523;23;20027;-73
2022/05/10 08:54:44;;;;;;;5.32;3.45;;;;;;;17.49;67.63;101054.78;6239359;23;20027;-74
2022/05/10 08:57:53;;;;;;;5.85;3.80;;;;;;;17.47;67.96;101047.91;6240373;23;20069;-73
2022/05/10 09:01:02;;;;;;;7.25;4.00;;;;;;;17.61;67.65;101042.44;6240622;23;20081;-73
2022/05/10 09:04:52;;;;;;;7.95;3.75;;;;;;;17.79;66.98;101032.34;6240832;23;20097;-73
2022/05/10 09:08:02;;;;;;;6.10;3.47;;;;;;;17.95;66.16;101040.00;6240449;23;20027;-73
2022/05/10 09:11:10;;;;;;;7.57;3.85;;;;;;;18.17;66.13;101028.63;6242037;23;20074;-74
2022/05/10 09:14:14;;;;;;;5.35;3.40;;;;;;;18.39;66.69;101026.00;6240006;22;20027;-73
2022/05/10 09:17:20;;;;;;;6.20;3.75;;;;;;;18.45;66.32;101019.41;6240849;23;20498;-73
2022/05/10 09:20:24;;;;;;;6.68;3.58;;;;;;;18.48;65.96;101019.19;6241049;23;20082;-74
2022/05/10 09:24:04;;;;;;;5.18;3.60;;;;;;;18.48;65.48;101016.53;6239728;23;20059;-73
2022/05/10 09:27:10;;;;;;;6.40;3.58;;;;;;;18.64;65.06;101010.88;6239829;23;20099;-73
2022/05/10 09:30:31;;;;;;;6.95;3.50;;;;;;;18.72;65.20;101011.09;6239897;23;20031;-73
2022/05/10 09:36:56;;;;;;;5.85;3.50;;;;;;;19.22;64.97;100999.13;6239637;23;20031;-74
2022/05/10 09:40:05;;;;;;;5.05;3.63;;;;;;;19.35;64.23;101000.81;6221093;23;20066;-74
2022/05/10 09:43:15;;;;;;;6.13;3.13;;;;;;;19.64;63.46;100991.31;6239328;23;20034;-73
2022/05/10 09:46:24;;;;;;;7.05;3.70;;;;;;;19.72;63.57;100991.53;6239991;23;20023;-73
2022/05/10 09:49:36;;;;;;;6.70;3.58;;;;;;;20.09;60.53;100977.78;6239341;23;20347;-74
2022/05/10 09:52:40;;;;;;;7.20;3.25;;;;;;;20.30;60.31;100975.13;6239507;23;20423;-73
2022/05/10 09:56:00;;;;;;;6.53;3.50;;;;;;;20.31;59.58;100970.66;6239807;23;20028;-73
2022/05/10 09:59:05;;;;;;;4.82;3.22;;;;;;;20.43;59.49;100966.94;6240010;23;20062;-73
2022/05/10 10:02:09;;;;;;;9.07;3.15;;;;;;;20.64;57.89;100967.75;6239037;23;20091;-74
2022/05/10 10:05:29;;;;;;;5.63;2.92;;;;;;;20.82;57.99;100961.78;6239632;23;20030;-73
2022/05/10 10:08:38;;;;;;;5.90;3.28;;;;;;;20.75;54.25;100950.03;6239916;23;20066;-73
2022/05/10 10:11:41;;;;;;;5.18;3.33;;;;;;;20.88;54.97;100955.94;6238659;23;20247;-74
2022/05/10 10:14:48;;;;;;;5.03;3.03;;;;;;;21.08;55.41;100949.66;6239626;23;20027;-74
2022/05/10 10:18:01;;;;;;;5.30;2.85;;;;;;;21.15;52.82;100947.28;6239084;23;20019;-73
2022/05/10 10:21:05;;;;;;;7.57;2.95;;;;;;;21.30;48.25;100942.41;6238527;23;20082;-74
2022/05/10 10:24:28;;;;;;;6.10;2.70;;;;;;;21.31;47.72;100939.63;6239524;23;20036;-73
2022/05/10 10:27:39;;;;;;;5.20;2.88;;;;;;;21.49;46.95;100934.44;6222022;23;20348;-74
2022/05/10 10:31:13;;;;;;;3.97;2.78;;;;;;;21.71;45.98;100932.47;6240327;23;20712;-74
2022/05/10 10:34:23;;;;;;;5.35;2.65;;;;;;;21.86;44.78;100914.22;6239643;23;20022;-74
2022/05/10 10:37:54;;;;;;;5.68;2.80;;;;;;;22.08;44.52;100923.69;6240436;23;20023;-73
2022/05/10 10:41:07;;;;;;;3.92;2.65;;;;;;;22.06;43.88;100922.03;6238136;23;20023;-74
2022/05/10 10:44:29;;;;;;;5.32;2.63;;;;;;;21.99;44.13;100920.09;6239708;23;20031;-73
2022/05/10 10:47:51;;;;;;;5.15;3.08;;;;;;;22.13;42.46;100908.13;6239957;23;20026;-74
2022/05/10 10:50:55;;;;;;;5.47;2.77;;;;;;;22.14;43.12;100904.47;6237877;23;20065;-74
2022/05/10 10:54:01;;;;;;;5.47;2.70;;;;;;;22.11;42.74;100904.75;6219044;23;20027;-73
2022/05/10 10:57:34;;;;;;;5.65;2.67;;;;;;;22.17;42.29;100904.22;6239384;23;20078;-74
2022/05/10 11:01:12;;;;;;;4.43;2.40;;;;;;;22.26;41.88;100896.19;6238567;23;20058;-73
2022/05/10 11:04:49;;;;;;;7.65;2.92;;;;;;;22.22;42.08;100893.97;6240318;23;20074;-74
2022/05/10 11:08:09;;;;;;;5.68;3.00;;;;;;;22.35;42.34;100881.16;6239537;23;20026;-73
2022/05/10 11:11:43;;;;;;;4.50;2.65;;;;;;;22.38;42.26;100878.19;6220902;23;20444;-74
2022/05/10 11:14:53;;;;;;;9.43;3.30;;;;;;;22.18;43.46;100879.28;6240310;23;20085;-78
2022/05/10 11:18:17;;;;;;;7.47;2.92;;;;;;;21.81;44.76;100880.06;6240768;23;20070;-78
2022/05/10 11:21:47;;;;;;;9.07;2.72;;;;;;;21.41;45.49;100872.28;6243628;23;20039;-80
2022/05/10 11:25:19;;;;;;;6.03;3.03;;;;;;;21.51;44.84;100862.50;6238845;23;20023;-74
2022/05/10 11:28:52;;;;;;;3.50;2.50;;;;;;;21.85;43.15;100859.31;6207727;23;20077;-74
2022/05/10 11:31:56;;;;;;;3.22;1.98;;;;;;;22.22;42.02;100851.34;6207502;23;20059;-75
2022/05/10 11:35:16;;;;;;;4.28;2.03;;;;;;;22.45;41.45;100851.78;6208544;23;20063;-74
2022/05/10 11:38:46;;;;;;;5.65;2.83;;;;;;;22.83;41.17;100845.34;6208270;23;20023;-75
2022/05/10 11:42:29;;;;;;;7.93;2.45;;;;;;;22.86;38.75;100844.22;6206343;23;20082;-74
2022/05/10 11:45:51;;;;;;;3.30;2.25;;;;;;;23.01;40.21;100849.91;6207388;23;20108;-74
2022/05/10 11:49:16;;;;;;;3.47;2.00;;;;;;;23.44;35.76;100844.56;6209224;23;20027;-75
2022/05/10 11:52:51;;;;;;;4.65;2.50;;;;;;;23.36;36.92;100835.69;6207558;23;20024;-75
2022/05/10 11:55:59;;;;;;;6.47;2.20;;;;;;;22.97;36.69;100831.53;6208537;23;20027;-74
2022/05/10 11:59:14;;;;;;;5.88;2.22;;;;;;;23.13;37.16;100819.31;6206819;23;20403;-75
2022/05/10 12:02:30;;;;;;;4.45;1.90;;;;;;;23.19;36.00;100821.34;6208115;23;20035;-75
2022/05/10 12:05:39;;;;;;;2.63;1.52;;;;;;;23.31;36.34;100812.13;6208099;23;20080;-75
2022/05/10 12:08:44;;;;;;;6.82;2.80;;;;;;;23.24;36.65;100815.56;6208781;23;20546;-75
2022/05/10 12:11:48;;;;;;;4.18;1.80;;;;;;;23.37;35.54;100808.81;6208514;23;20348;-74
2022/05/10 12:22:08;;;;;;;5.97;2.40;;;;;;;23.64;35.43;100797.16;6206346;23;20071;-75
2022/05/10 12:25:50;;;;;;;4.97;2.20;;;;;;;23.89;35.81;100794.63;6206634;23;20311;-74
2022/05/10 12:28:54;;;;;;;7.78;2.00;;;;;;;23.79;35.82;100784.06;6240389;23;20034;-75
2022/05/10 12:32:04;;;;;;;5.20;2.20;;;;;;;23.87;35.96;100781.44;6234350;23;20027;-74
2022/05/10 12:35:26;;;;;;;5.00;2.60;;;;;;;24.02;36.06;100783.50;6238898;23;20027;-75
2022/05/10 12:38:41;;;;;;;5.65;2.42;;;;;;;23.96;36.32;100778.78;6238501;23;20059;-75
2022/05/10 12:41:52;;;;;;;6.15;3.05;;;;;;;23.96;35.79;100784.13;6240749;23;20027;-75
2022/05/10 12:45:41;;;;;;;4.72;2.10;;;;;;;24.19;35.66;100774.56;6222165;23;20030;-75
2022/05/10 12:49:09;;;;;;;7.38;2.10;;;;;;;24.33;35.11;100771.22;6240909;22;20097;-75
2022/05/10 12:52:38;;;;;;;3.88;2.35;;;;;;;24.25;36.06;100773.91;6240423;23;20081;-75
2022/05/10 12:55:44;;;;;;;6.63;2.20;;;;;;;24.82;35.03;100771.34;6222925;23;20150;-75
2022/05/10 12:58:53;;;;;;;6.90;2.40;;;;;;;24.95;34.37;100757.47;6238173;23;20054;-75
2022/05/10 13:02:00;;;;;;;5.22;2.25;;;;;;;25.07;34.18;100773.97;6235944;23;20082;-75
2022/05/10 13:05:08;;;;;;;5.45;2.45;;;;;;;25.29;34.61;100773.31;6221442;23;20023;-75
2022/05/10 13:08:34;;;;;;;3.78;2.53;;;;;;;25.85;33.56;100756.47;6245453;23;20023;-75
2022/05/10 13:11:57;;;;;;;4.85;2.40;;;;;;;25.54;33.79;100757.19;6245358;23;20098;-75
2022/05/10 13:15:10;;;;;;;4.00;2.20;;;;;;;25.92;32.52;100741.34;6245950;23;20049;-75
2022/05/10 13:18:18;;;;;;;;;;;;;;;25.99;32.67;100750.34;6246242;23;20474;-75
2022/05/10 13:21:28;;;;;;;4.40;2.25;;;;;;;25.50;33.84;100751.38;6245929;23;19914;-75
2022/05/10 13:24:33;;;;;;;4.75;2.22;;;;;;;25.02;34.89;100729.03;6245155;23;20042;-75
2022/05/10 13:27:39;;;;;;;6.88;2.40;;;;;;;24.89;35.50;100733.19;6245670;23;20030;-75
2022/05/10 13:30:47;;;;;;;3.75;2.22;;;;;;;24.75;35.76;100735.53;6245429;23;20039;-75
2022/05/10 13:33:50;;;;;;;3.97;2.60;;;;;;;24.83;35.47;100724.88;6244901;23;20023;-74
2022/05/10 13:36:55;;;;;;;6.90;2.92;;;;;;;24.57;36.32;100724.22;6244566;23;20026;-75
2022/05/10 13:40:05;;;;;;;5.57;2.40;;;;;;;24.71;37.06;100720.03;6244770;23;20077;-75
2022/05/10 13:43:33;;;;;;;4.15;2.35;;;;;;;24.72;37.71;100710.97;6243971;23;20030;-74
2022/05/10 13:46:54;;;;;;;4.68;1.95;;;;;;;24.74;36.48;100709.00;6244263;23;20038;-75
2022/05/10 13:50:00;;;;;;;4.55;2.22;;;;;;;25.01;35.78;100699.75;6240680;22;20458;-75
2022/05/10 13:53:15;;;;;;;3.28;2.05;;;;;;;25.09;35.75;100702.41;6240458;22;20027;-75
2022/05/10 13:56:29;;;;;;;3.53;2.05;;;;;;;24.98;35.78;100695.59;6244520;23;20078;-75
2022/05/10 13:59:32;;;;;;;6.35;3.08;;;;;;;24.31;36.05;100698.44;6245217;23;20034;-75
2022/05/10 14:02:36;;;;;;;7.70;2.30;;;;;;;23.80;37.46;100700.31;6245495;23;20031;-74
2022/05/10 14:05:40;;;;;;;4.25;2.22;;;;;;;24.31;36.58;100690.41;6245474;23;20070;-74
2022/05/10 14:08:46;;;;;;;6.75;2.22;;;;;;;24.83;35.28;100682.06;6245420;23;20023;-74
2022/05/10 14:11:53;;;;;;;7.20;2.13;;;;;;;24.66;33.60;100685.75;6245391;23;20027;-75
2022/05/10 14:15:18;;;;;;;4.40;1.90;;;;;;;25.26;31.93;100671.97;6245301;23;20091;-74
2022/05/10 14:18:32;;;;;;;3.00;1.63;;;;;;;24.69;33.52;100672.03;6226745;23;20018;-74
2022/05/10 14:21:37;;;;;;;6.70;1.95;;;;;;;24.72;33.12;100668.19;6245439;23;20023;-74
2022/05/10 14:24:43;;;;;;;3.13;1.75;;;;;;;24.94;32.92;100666.66;6245277;23;20023;-74
2022/05/10 14:28:05;;;;;;;4.85;1.42;;;;;;;24.64;32.27;100666.38;6245025;23;20366;-73
2022/05/10 14:31:36;;;;;;;4.38;1.80;;;;;;;24.33;32.84;100659.00;6245014;23;20023;-74
2022/05/10 14:35:07;;;;;;;2.95;1.45;;;;;;;24.26;32.75;100655.31;6245181;23;20027;-74
2022/05/10 14:38:23;;;;;;;5.10;2.10;;;;;;;24.16;31.66;100648.47;6245360;23;20019;-74
2022/05/10 14:41:29;;;;;;;6.70;1.80;;;;;;;24.06;32.30;100646.78;6245028;23;20062;-74
2022/05/10 14:44:42;;;;;;;4.35;1.52;;;;;;;24.43;30.62;100648.16;6245173;23;20023;-74
2022/05/10 14:47:47;;;;;;;5.95;1.70;;;;;;;25.00;30.08;100642.75;6244716;23;20105;-74
2022/05/10 14:50:57;;;;;;;3.63;2.03;;;;;;;25.27;29.50;100648.69;6245178;23;20073;-74
2022/05/10 14:54:00;;;;;;;4.20;1.80;;;;;;;25.87;29.06;100625.84;6245618;22;20094;-74
2022/05/10 14:57:28;;;;;;;5.38;1.60;;;;;;;26.37;28.61;100629.84;6244891;22;20027;-75
2022/05/10 15:03:39;;;;;;;2.67;1.50;;;;;;;24.90;30.14;100617.19;6245114;23;20027;-75
2022/05/10 15:06:46;;;;;;;3.70;2.15;;;;;;;25.18;30.19;100618.47;6245010;23;20074;-75